Date,TemperatureHighF,TemperatureAvgF,TemperatureLowF,DewpointHighF,DewpointAvgF,DewpointLowF,HumidityHigh,HumidityAvg,HumidityLow,PressureMaxIn,PressureMinIn,WindSpeedMaxMPH,WindSpeedAvgMPH,GustSpeedMaxMPH,PrecipitationSumIn
2012-1-1,81,74,67,67,64,59,84,72,56,30.04,29.94,8,5,15,0.00
2012-1-2,81,73,66,69,65,60,86,75,60,30.09,30.00,9,5,12,0.00
2012-1-3,82,76,69,71,66,60,87,73,61,30.15,30.04,11,4,17,0.00
2012-1-4,82,75,68,69,66,63,83,74,61,30.17,30.08,8,4,12,0.00
2012-1-5,81,75,66,68,64,60,81,70,59,30.17,30.05,10,5,13,0.00
2012-1-6,80,74,67,63,60,57,73,62,53,30.13,30.02,9,4,12,0.00
2012-1-7,80,73,65,60,57,54,69,59,44,30.09,30.02,7,4,11,0.00
2012-1-8,81,72,63,64,59,53,74,63,44,30.08,30.00,9,5,14,0.00
2012-1-9,81,72,63,64,59,53,80,62,52,30.08,30.00,8,5,12,0.00
2012-1-10,80,73,65,63,58,51,71,60,52,30.07,29.96,9,6,14,0.00
2012-1-11,81,72,66,65,60,55,77,66,57,30.03,29.94,9,5,12,0.00
2012-1-12,79,72,66,65,60,56,77,67,60,29.97,29.87,8,3,19,0.00
2012-1-13,80,72,65,66,61,56,76,69,56,29.92,29.84,9,5,14,0.00
2012-1-14,82,73,64,64,59,54,77,62,45,29.94,29.85,8,4,12,0.00
2012-1-15,84,76,69,68,62,56,75,63,45,29.99,29.83,13,7,21,0.00
2012-1-16,84,77,69,70,65,58,81,68,50,30.02,29.91,14,6,20,0.00
2012-1-17,83,76,70,68,66,60,86,70,55,30.04,29.90,11,4,18,0.00
2012-1-18,81,74,67,69,64,58,81,71,57,30.04,29.96,10,4,15,0.00
2012-1-19,82,75,67,68,65,61,85,72,60,30.09,30.02,11,4,16,0.00
2012-1-20,82,74,66,66,64,60,88,70,57,30.10,30.01,9,4,13,0.00
2012-1-21,81,74,66,67,63,58,80,71,59,30.13,30.03,7,4,12,0.00
2012-1-22,81,75,66,67,62,57,77,66,58,30.04,29.94,10,6,17,0.00
2012-1-23,83,75,66,64,62,57,74,64,43,30.04,29.96,11,6,18,0.00
2012-1-24,82,74,65,70,63,58,90,69,50,30.02,29.95,10,5,16,0.10
2012-1-25,83,75,67,69,65,60,97,74,47,30.02,29.92,10,5,16,0.31
2012-1-26,83,74,65,67,63,58,85,70,53,30.00,29.87,13,6,19,0.00
2012-1-27,83,73,64,67,63,56,84,71,45,30.02,29.89,13,6,20,0.00
2012-1-28,80,74,68,64,61,56,84,66,54,30.06,29.97,8,5,12,0.00
2012-1-29,82,74,64,66,62,55,82,67,50,30.10,30.02,9,5,12,0.00
2012-1-30,81,75,69,64,63,59,79,67,55,30.07,29.97,8,6,12,0.00
2012-1-31,80,75,71,65,63,60,77,67,57,30.01,29.91,8,3,11,0.00
2012-2-1,80,76,70,63,60,57,65,59,53,30.01,29.91,8,6,12,0.00
2012-2-2,81,74,63,61,57,51,67,56,44,30.01,29.93,8,5,12,0.00
2012-2-3,81,74,68,65,60,52,75,63,55,30.00,29.89,8,6,12,0.00
2012-2-4,80,72,66,63,59,56,72,64,52,29.93,29.82,9,6,12,0.00
2012-2-5,82,74,66,67,62,57,77,68,59,29.91,29.80,9,6,13,0.00
2012-2-6,81,74,64,66,59,50,74,60,47,29.94,29.86,9,6,14,0.00
2012-2-7,80,74,68,67,60,54,96,63,44,29.97,29.89,13,8,21,0.20
2012-2-8,79,71,64,68,60,53,99,71,40,30.06,29.93,13,7,20,0.14
2012-2-9,82,72,63,62,56,51,80,59,39,30.19,30.05,12,6,17,0.01
2012-2-10,80,73,61,64,59,51,79,62,46,30.20,30.11,10,6,16,0.00
2012-2-11,81,73,64,64,59,52,80,62,43,30.21,30.12,8,5,12,0.00
2012-2-12,81,74,65,66,62,55,79,66,49,30.21,30.09,8,5,11,0.00
2012-2-13,81,74,67,67,63,56,81,68,57,30.16,30.04,8,5,14,0.00
2012-2-14,81,75,67,67,64,61,91,70,53,30.12,30.04,9,5,13,0.00
2012-2-15,82,75,69,66,56,-100,77,63,57,30.14,30.06,0,0,0,0.00
2012-2-16,81,74,65,65,61,56,76,65,51,30.16,30.06,9,4,13,0.00
2012-2-17,82,76,70,66,62,59,73,64,46,30.16,30.05,8,5,11,0.00
2012-2-18,81,75,69,65,63,59,79,66,58,30.13,30.02,10,5,16,0.00
2012-2-19,81,75,69,65,62,58,73,63,52,30.10,29.93,17,7,24,0.00
2012-2-20,81,75,69,64,62,58,83,63,53,30.08,29.97,8,5,12,0.01
2012-2-21,80,72,67,65,60,55,79,66,55,30.11,29.98,7,5,10,0.01
2012-2-22,81,76,68,66,62,54,71,61,46,30.06,29.95,8,5,11,0.00
2012-2-23,81,76,70,67,63,58,70,65,56,30.03,29.87,9,6,14,0.00
2012-2-24,81,75,67,67,63,57,80,67,57,29.98,29.90,10,5,14,0.00
2012-2-25,83,75,67,69,64,59,83,69,53,30.00,29.91,10,5,14,0.00
2012-2-26,82,75,68,68,65,61,83,71,60,30.02,29.92,8,5,13,0.00
2012-2-27,81,75,66,67,57,-100,85,66,53,30.04,29.95,8,4,12,0.02
2012-2-28,82,75,69,66,63,60,74,67,57,30.06,29.98,8,5,13,0.00
2012-2-29,81,75,69,67,63,58,79,67,55,30.04,29.96,8,5,11,0.00
2012-3-1,82,76,71,67,64,60,76,67,55,30.05,29.96,9,4,12,0.00
2012-3-2,81,75,69,66,63,56,75,66,50,30.06,29.98,8,5,13,0.00
2012-3-3,80,74,67,67,62,56,78,66,55,30.04,29.93,10,3,15,0.00
2012-3-4,81,75,67,66,63,59,79,67,50,29.97,29.85,9,6,12,0.00
2012-3-5,81,75,69,67,64,60,77,68,60,29.92,29.81,10,6,14,0.00
2012-3-6,82,74,68,71,64,58,95,72,52,30.01,29.86,10,5,15,0.03
2012-3-7,83,78,74,67,64,62,70,63,53,30.03,29.93,10,6,17,0.00
2012-3-8,81,78,74,66,64,63,70,64,61,29.98,29.90,4,1,6,0.00
2012-3-9,82,79,74,68,64,60,67,59,53,29.97,29.89,0,0,0,0.00
2012-3-10,83,79,74,67,62,-100,74,62,51,30.05,29.99,0,0,0,0.00
2012-3-11,82,78,75,66,66,64,74,67,59,30.10,30.02,0,0,0,0.00
2012-3-12,81,76,71,71,67,64,94,75,58,30.08,29.98,0,0,0,0.03
2012-3-13,82,77,70,66,63,59,71,62,56,30.03,29.95,0,0,0,0.00
2012-3-14,81,74,65,63,59,54,71,60,50,30.05,29.96,10,6,16,0.00
2012-3-15,80,73,65,62,58,53,69,60,46,30.11,30.01,8,5,16,0.00
2012-3-16,83,76,66,61,58,55,75,56,41,30.15,30.05,8,5,14,0.00
2012-3-17,82,74,67,65,60,54,70,62,51,30.15,30.04,8,5,12,0.00
2012-3-18,82,74,66,64,61,56,75,64,50,30.07,29.99,9,5,14,0.00
2012-3-19,82,75,69,67,64,57,82,68,56,30.05,29.95,9,5,14,0.00
2012-3-20,81,75,67,66,62,-100,76,65,58,30.07,29.96,10,6,14,0.00
2012-3-21,80,73,68,64,60,57,71,66,54,30.07,30.00,8,5,12,0.00
2012-3-23,81,76,69,65,63,60,75,64,54,30.03,29.94,10,6,14,0.00
2012-3-24,81,75,69,66,62,60,91,66,51,30.05,29.99,8,5,14,0.03
2012-3-25,82,75,68,67,63,60,75,67,54,30.04,29.97,10,5,15,0.02
2012-3-26,80,74,67,64,61,58,78,65,55,30.05,29.96,9,6,17,0.00
2012-3-27,82,73,65,65,60,54,71,63,50,30.04,29.96,9,6,15,0.00
2012-3-28,81,74,67,66,62,58,77,67,56,30.05,29.97,9,5,14,0.00
2012-3-29,80,75,67,64,62,58,81,64,50,30.05,29.99,8,5,11,0.00
2012-3-30,83,78,72,61,58,54,63,52,41,30.06,29.97,10,8,16,0.00
2012-3-31,82,72,69,65,52,-100,73,56,53,30.10,29.98,11,6,17,0.00
2012-4-1,82,75,66,68,63,57,78,67,49,30.13,30.02,9,6,12,0.00
2012-4-2,81,76,71,69,67,63,93,74,60,30.08,29.98,9,5,12,0.01
2012-4-3,82,76,69,68,66,62,87,72,59,30.05,29.93,11,6,15,0.01
2012-4-4,83,76,69,68,65,61,83,71,56,30.02,29.93,10,6,13,0.00
2012-4-5,80,75,67,68,64,59,82,70,60,30.01,29.93,10,5,14,0.00
2012-4-6,82,76,68,67,64,60,82,69,55,30.07,29.95,10,6,14,0.00
2012-4-7,80,76,69,68,66,62,80,72,63,30.07,29.99,8,6,12,0.00
2012-4-8,82,78,71,67,65,61,75,65,57,30.09,30.01,10,7,15,0.00
2012-4-9,83,78,74,65,63,61,68,60,51,30.09,30.01,8,6,13,0.00
2012-4-10,82,78,70,65,63,60,75,62,49,30.08,30.01,11,8,16,0.00
2012-4-11,82,76,68,66,63,57,75,65,53,30.11,30.02,11,7,16,0.00
2012-4-12,82,77,70,67,66,62,81,69,59,30.13,30.03,12,7,18,0.00
2012-4-13,83,76,68,67,64,60,78,67,58,30.14,30.04,12,7,17,0.00
2012-4-14,82,75,69,68,64,-100,80,71,63,30.14,30.05,9,6,14,0.00
2012-4-15,80,75,67,69,66,62,84,74,63,30.12,30.02,8,5,12,0.00
2012-4-16,84,80,73,65,63,59,71,57,44,30.10,30.02,10,7,17,0.00
2012-4-17,83,78,71,67,63,61,75,61,50,30.10,30.00,10,6,15,0.00
2012-4-18,82,77,71,66,63,57,72,63,52,30.09,30.00,9,6,14,0.00
2012-4-19,81,76,71,67,64,60,82,66,56,30.08,30.00,9,5,13,0.00
2012-4-20,83,78,70,66,55,-100,80,59,48,30.05,29.94,10,6,14,0.00
2012-4-21,83,76,68,65,64,60,81,65,53,30.01,29.92,10,6,16,0.00
2012-4-22,80,75,67,66,62,56,79,65,55,30.04,29.91,10,6,16,0.00
2012-4-23,78,77,72,66,65,64,79,67,63,30.06,30.03,7,6,11,0.00
2012-4-24,82,79,74,65,64,63,74,62,55,30.11,30.02,10,7,13,0.00
2012-4-25,81,79,77,66,65,64,67,64,61,30.08,30.00,8,7,14,0.00
2012-4-26,82,79,76,66,66,65,70,64,57,30.05,30.00,10,7,14,0.00
2012-4-27,81,79,77,68,66,64,70,66,59,30.08,29.99,9,7,12,0.00
2012-4-28,81,76,71,70,65,-100,82,72,67,30.09,30.02,8,6,12,0.07
2012-4-29,80,78,78,68,67,66,72,69,65,30.09,30.03,8,6,13,0.00
2012-4-30,83,80,74,67,65,60,73,62,48,30.07,29.99,10,6,15,0.00
2012-5-1,80,79,74,68,66,64,75,67,62,30.07,29.97,9,7,12,0.00
2012-5-3,81,77,71,66,65,61,84,67,51,30.04,29.99,10,7,17,0.02
2012-5-4,82,79,73,68,66,61,80,65,57,30.05,29.98,9,7,14,0.00
2012-5-5,83,78,71,69,64,-100,75,66,54,30.05,29.98,12,8,15,0.00
2012-5-6,83,79,71,67,65,62,74,64,56,30.05,29.99,9,7,14,0.00
2012-5-7,83,79,72,68,67,65,78,66,59,30.08,30.00,8,7,14,0.00
2012-5-8,83,78,70,70,67,65,93,68,57,30.11,30.03,9,7,14,0.67
2012-5-9,80,76,70,68,66,64,94,74,60,30.06,29.98,13,8,18,1.61
2012-5-10,81,76,69,67,65,63,83,71,59,30.04,29.96,8,6,13,0.18
2012-5-11,81,77,69,66,65,62,82,66,55,30.01,29.95,10,8,15,0.00
2012-5-12,80,73,68,67,61,-100,91,71,58,30.04,29.95,10,6,14,0.26
2012-5-13,81,77,70,68,63,59,90,64,53,30.03,29.95,9,6,12,0.02
2012-5-14,81,74,67,67,64,60,92,71,56,30.01,29.93,9,6,15,0.02
2012-5-15,81,75,67,66,63,58,78,66,57,30.02,29.93,9,6,13,0.00
2012-5-16,84,77,67,67,63,58,78,64,46,30.04,29.95,9,6,14,0.00
2012-5-17,83,78,72,68,66,63,83,67,52,30.09,30.01,10,6,16,0.00
2012-5-18,84,77,71,71,68,63,94,75,58,30.09,29.99,9,6,14,0.25
2012-5-19,83,78,74,71,65,-100,80,69,64,30.04,29.97,8,6,14,0.28
2012-5-20,84,80,73,69,66,64,77,64,53,30.06,29.99,8,6,11,0.00
2012-5-21,83,80,79,70,69,68,73,68,60,30.08,30.02,9,6,13,0.00
2012-5-22,83,81,79,69,69,68,72,67,63,30.09,30.00,8,7,13,0.00
2012-5-23,82,80,77,68,67,65,72,64,58,30.06,30.00,12,7,18,0.00
2012-5-24,82,80,80,69,68,67,70,67,61,30.06,30.00,7,6,11,0.00
2012-5-25,85,82,79,69,67,65,70,61,55,30.02,29.97,8,7,14,0.00
2012-5-26,85,82,78,68,67,64,69,60,49,30.03,29.98,11,8,17,0.00
2012-5-27,83,81,79,71,70,69,74,69,64,30.03,29.97,9,7,14,0.00
2012-5-28,83,81,80,70,68,67,72,65,61,30.07,30.01,9,7,14,0.00
2012-5-29,83,81,76,66,65,64,69,59,53,30.08,30.03,8,6,13,0.00
2012-5-31,81,79,77,70,67,65,79,67,59,30.07,30.03,9,7,13,0.00
2012-6-1,82,80,79,66,65,63,65,60,53,30.08,30.03,7,6,12,0.00
2012-6-2,83,78,79,69,40,-100,69,55,51,30.07,30.01,9,7,15,0.00
2012-6-3,83,81,79,65,63,61,62,55,48,30.06,29.97,8,7,14,0.00
2012-6-4,82,80,78,68,66,64,69,64,59,30.03,29.99,11,8,15,0.00
2012-6-5,85,82,80,69,66,62,67,59,47,30.04,29.99,9,8,13,0.00
2012-6-6,81,80,79,71,49,-100,73,62,68,30.02,29.99,7,6,11,0.00
2012-6-7,83,80,79,69,48,-100,69,58,61,30.03,29.98,8,7,12,0.00
2012-6-8,84,82,79,68,67,67,67,60,56,30.00,29.95,7,6,11,0.00
2012-6-9,83,81,79,67,66,64,64,59,56,29.98,29.93,8,7,12,0.00
2012-6-10,82,80,79,69,68,67,71,66,62,29.99,29.94,8,7,12,0.00
2012-6-11,82,81,79,70,67,65,71,64,56,30.02,29.97,8,7,11,0.00
2012-6-12,83,81,77,70,68,65,68,65,61,30.01,29.96,11,8,15,0.00
2012-6-13,84,82,78,69,68,67,71,63,57,30.01,29.95,8,7,11,0.00
2012-6-14,85,82,78,70,68,67,71,64,60,30.01,29.96,10,7,15,0.00
2012-6-15,84,80,77,69,68,66,76,66,57,30.07,30.01,9,6,13,0.00
2012-6-16,86,79,77,68,62,-100,74,61,44,30.07,30.00,9,5,14,0.00
2012-6-17,85,82,77,69,67,65,70,61,51,30.09,30.02,7,5,15,0.00
2012-6-18,84,82,78,68,66,64,71,60,55,30.01,29.93,12,8,17,0.00
2012-6-19,82,80,79,67,66,64,65,62,57,29.92,29.90,11,10,18,0.00
2012-6-20,83,80,76,73,71,69,90,74,65,29.97,29.93,9,8,14,0.15
2012-6-21,84,81,75,73,70,67,82,70,61,30.01,29.96,10,6,14,0.00
2012-6-22,85,82,77,70,69,68,79,67,58,30.03,29.97,10,8,15,0.00
2012-6-23,82,71,80,71,49,-100,72,60,65,30.04,29.97,9,-116,14,0.00
2012-6-24,85,82,78,70,68,67,72,63,55,30.04,30.00,10,8,15,0.00
2012-6-25,82,81,80,69,69,69,69,68,66,30.09,30.08,8,7,12,0.00
2012-6-26,84,82,79,66,65,63,63,57,52,30.05,30.00,10,8,16,0.00
2012-6-27,84,81,78,68,67,65,69,63,56,30.00,29.94,9,7,14,0.00
2012-6-28,83,80,77,70,67,65,77,65,54,30.02,29.99,9,6,15,0.00
2012-6-29,83,81,80,68,68,67,66,63,58,30.08,30.01,9,8,16,0.00
2012-6-30,83,81,77,68,67,65,73,63,55,30.01,29.94,10,8,15,0.00
2012-7-1,82,81,79,67,66,66,67,62,58,29.97,29.92,8,8,13,0.00
2012-7-2,83,80,79,67,40,-100,63,51,53,29.99,29.96,8,6,11,0.00
2012-7-3,85,81,77,68,67,64,74,62,49,30.02,29.98,10,7,15,0.00
2012-7-4,85,82,77,69,67,64,70,60,50,29.98,29.91,11,7,14,0.00
2012-7-5,86,82,77,70,67,65,73,61,50,29.97,29.91,9,6,15,0.00
2012-7-6,85,81,78,70,69,68,72,66,57,30.01,29.95,10,7,15,0.00
2012-7-7,85,75,79,69,55,-100,67,59,55,29.98,29.94,9,-66,14,0.01
2012-7-8,82,81,80,69,67,66,65,63,59,30.00,29.97,7,6,15,0.00
2012-7-9,85,82,78,67,66,66,67,58,54,30.01,29.97,9,8,14,0.00
2012-7-10,80,55,79,66,15,-100,65,44,62,30.00,29.99,8,6,11,0.00
2012-7-11,84,82,78,67,66,64,67,58,53,30.00,29.95,10,8,14,0.00
2012-7-12,85,82,78,69,67,66,71,60,53,29.98,29.91,9,7,13,0.00
2012-7-13,85,82,77,71,69,68,74,64,61,29.96,29.90,9,7,14,0.00
2012-7-14,85,82,80,70,69,67,71,65,59,30.00,29.95,11,9,16,0.00
2012-7-15,84,82,79,67,65,63,64,57,50,30.00,29.93,9,7,12,0.00
2012-7-16,84,82,79,70,68,66,71,64,57,30.01,29.93,8,6,14,0.00
2012-7-17,85,82,79,72,71,70,77,70,62,29.96,29.91,9,6,14,0.00
2012-7-18,84,82,78,72,71,69,80,70,62,29.98,29.94,8,6,12,0.00
2012-7-19,85,81,74,70,69,66,76,66,56,30.01,29.95,10,6,14,0.00
2012-7-20,85,81,77,69,67,64,68,61,55,30.02,29.97,10,7,15,0.00
2012-7-21,85,81,75,69,66,64,74,62,54,30.01,29.94,12,8,17,0.00
2012-7-22,85,81,76,69,67,64,75,63,54,30.02,29.95,10,7,16,0.00
2012-7-23,85,81,74,70,68,65,77,65,52,30.04,29.97,11,7,15,0.00
2012-7-24,85,80,75,68,67,66,77,66,55,30.02,29.93,10,7,16,0.00
2012-7-25,86,82,76,67,66,64,68,58,50,30.00,29.90,10,7,14,0.00
2012-7-26,86,82,75,65,64,62,70,55,48,29.98,29.92,9,6,15,0.00
2012-7-27,84,80,75,68,66,64,74,63,55,30.00,29.95,8,5,15,0.00
2012-7-28,86,82,78,70,68,65,70,62,56,30.02,29.95,10,6,16,0.00
2012-7-29,85,81,76,70,60,-100,76,62,54,30.02,29.94,8,6,12,0.00
2012-7-30,86,82,77,70,69,67,74,65,53,30.01,29.94,10,6,14,0.00
2012-7-31,87,82,77,73,71,68,73,68,60,30.01,29.93,9,6,12,0.00
2012-8-1,84,81,77,74,72,71,89,76,65,30.01,29.97,10,6,15,0.08
2012-8-2,84,82,80,71,70,69,70,67,64,30.01,29.97,10,9,14,0.02
2012-8-3,85,83,80,70,69,68,68,63,58,30.04,29.97,7,6,11,0.00
2012-8-4,85,83,79,70,69,67,70,63,59,30.03,29.96,9,7,14,0.00
2012-8-5,86,82,77,71,70,69,83,66,58,30.02,29.96,10,8,15,0.00
2012-8-6,84,81,77,72,70,69,83,71,61,30.02,29.94,10,7,15,1.20
2012-8-7,84,79,73,70,69,67,86,70,61,30.02,29.94,10,6,14,0.00
2012-8-8,84,81,77,70,68,67,73,66,60,30.04,29.96,9,6,13,0.00
2012-8-9,85,75,0,71,63,-10,80,66,62,30.07,29.98,11,6,16,0.00
2012-8-10,85,81,75,71,67,65,80,62,51,30.06,29.94,10,6,17,0.00
2012-8-11,85,80,74,71,64,-100,83,63,51,30.00,29.91,9,6,13,0.00
2012-8-12,85,81,76,71,69,67,83,67,58,30.01,29.91,8,6,12,0.01
2012-8-13,85,80,75,72,69,67,80,69,59,30.01,29.94,9,6,15,0.00
2012-8-14,85,81,74,69,67,62,79,64,54,30.00,29.91,10,6,17,0.00
2012-8-15,86,82,77,69,68,66,70,63,54,29.97,29.90,10,8,16,0.00
2012-8-16,86,80,73,70,67,65,76,65,56,30.00,29.93,10,7,16,0.00
2012-8-17,86,80,73,71,67,63,87,65,54,30.01,29.95,10,7,16,0.14
2012-8-18,85,80,73,70,65,61,76,62,45,29.99,29.90,8,6,13,0.14
2012-8-19,85,80,74,68,66,61,73,62,50,29.97,29.91,9,6,14,0.00
2012-8-20,86,75,76,71,55,-100,78,60,53,30.00,29.96,11,7,17,0.00
2012-8-21,86,82,74,71,68,62,75,63,53,30.05,29.98,10,8,18,0.00
2012-8-22,85,82,74,71,68,63,75,64,48,30.06,29.98,11,7,14,0.00
2012-8-23,85,81,74,70,69,65,75,66,58,30.04,29.97,10,6,15,0.00
2012-8-24,85,80,74,71,69,67,79,68,60,30.05,29.98,9,6,15,0.18
2012-8-25,87,82,73,70,66,61,79,60,45,30.06,29.97,9,7,15,0.00
2012-8-26,83,81,78,67,66,65,69,61,56,30.03,29.95,10,8,15,0.00
2012-8-27,85,82,78,69,67,66,68,61,54,30.02,29.92,10,6,14,0.00
2012-8-28,84,83,79,65,64,63,63,54,49,30.00,29.93,8,6,14,0.00
2012-8-29,85,82,78,70,69,67,70,64,59,30.00,29.94,10,7,14,0.00
2012-8-30,86,83,78,70,69,66,76,62,53,30.01,29.94,9,8,14,0.00
2012-8-31,85,83,81,69,67,65,64,58,53,30.04,29.96,8,6,11,0.00
2012-9-1,85,83,80,70,67,64,64,59,50,30.03,29.97,10,8,14,0.00
2012-9-2,82,82,81,68,67,66,63,62,59,30.04,29.98,8,7,13,0.00
2012-9-3,84,82,80,68,67,65,64,60,58,30.03,29.94,10,7,14,0.00
2012-9-4,85,82,77,68,66,65,68,58,53,30.05,29.97,9,7,13,0.00
2012-9-5,84,75,78,68,53,-100,68,54,52,30.06,29.96,9,-74,13,0.00
2012-9-6,85,83,79,68,66,63,65,57,50,29.99,29.91,10,7,14,0.00
2012-9-7,84,82,78,70,68,67,68,64,59,29.98,29.91,10,7,14,0.00
2012-9-8,85,82,77,70,68,66,70,62,57,30.03,29.96,9,8,12,0.00
2012-9-9,87,84,80,69,67,63,69,56,50,30.05,29.98,10,7,16,0.00
2012-9-10,84,82,79,69,68,67,67,63,58,30.03,29.96,12,8,17,0.00
2012-9-11,84,82,78,70,68,67,68,64,57,29.99,29.92,12,9,17,0.00
2012-9-12,83,81,80,69,48,-100,64,53,57,30.00,29.91,8,7,14,0.00
2012-9-13,83,81,80,68,67,65,64,62,57,30.00,29.94,8,6,16,0.00
2012-9-14,83,67,80,67,36,-100,64,49,53,30.03,29.94,7,-174,12,0.00
2012-9-15,84,82,79,67,66,65,66,57,54,30.02,29.92,8,7,14,0.00
2012-9-16,85,84,80,67,65,63,64,54,50,30.02,29.94,9,8,14,0.00
2012-9-17,85,82,79,68,66,63,62,58,51,29.99,29.90,10,7,13,0.00
2012-9-18,84,82,78,68,66,64,65,59,53,29.97,29.88,9,7,13,0.00
2012-9-19,85,84,82,68,67,65,63,57,54,29.99,29.92,10,8,16,0.00
2012-9-20,86,84,81,69,69,68,66,60,57,30.02,29.95,10,9,16,0.00
2012-9-21,85,83,80,69,67,66,65,59,55,30.00,29.91,9,8,14,0.00
2012-9-22,86,82,80,68,62,-100,63,56,53,29.98,29.91,11,8,15,0.00
2012-9-23,87,85,83,69,68,66,63,57,53,29.99,29.92,9,7,14,0.00
2012-9-24,85,83,81,72,70,68,72,67,63,29.99,29.92,9,8,14,0.00
2012-9-25,85,84,80,69,68,67,65,59,56,29.99,29.93,10,9,16,0.00
2012-9-26,84,82,80,69,67,64,66,59,54,30.00,29.92,9,7,14,0.00
2012-9-27,84,82,80,70,69,67,69,64,56,30.02,29.94,9,8,13,0.00
2012-9-28,84,83,81,69,68,67,64,60,58,29.98,29.89,9,7,13,0.00
2012-9-29,84,83,81,68,67,66,63,59,55,29.99,29.90,11,8,15,0.00
2012-9-30,84,82,80,70,68,67,67,62,56,29.99,29.89,9,8,12,0.00
2012-10-1,84,83,81,70,68,67,70,63,57,29.96,29.88,10,8,13,0.00
2012-10-2,85,84,81,69,68,66,68,61,54,29.95,29.87,11,9,15,0.00
2012-10-3,85,84,82,70,70,67,65,61,56,29.98,29.90,12,8,17,0.00
2012-10-4,85,84,82,71,70,70,68,63,60,30.00,29.93,10,9,14,0.00
2012-10-5,85,83,81,69,68,67,63,60,56,29.97,29.88,9,8,14,0.00
2012-10-6,85,83,80,70,69,68,67,62,57,29.91,29.84,8,7,12,0.00
2012-10-7,84,83,81,69,68,68,66,62,58,29.90,29.85,9,7,15,0.00
2012-10-8,85,83,81,69,69,68,66,61,56,29.95,29.89,10,9,14,0.00
2012-10-9,87,84,83,72,69,67,67,61,54,30.03,29.97,12,9,17,0.00
2012-10-10,87,85,82,72,71,70,70,64,60,30.04,29.96,9,8,15,0.00
2012-10-11,86,84,83,71,71,70,67,64,60,30.04,29.94,9,8,14,0.00
2012-10-12,86,75,84,68,48,-100,58,48,53,30.06,29.98,9,8,14,0.00
2012-10-13,85,84,83,70,68,65,63,57,51,30.08,30.01,10,8,14,0.00
2012-10-14,86,84,82,67,65,62,60,52,48,30.08,29.99,9,7,13,0.00
2012-10-16,85,76,83,70,52,-100,61,54,57,29.98,29.90,12,8,18,0.00
2012-10-17,85,84,82,68,68,67,61,59,56,29.95,29.87,9,7,12,0.00
2012-10-18,85,84,82,70,46,-100,61,51,56,29.96,29.88,9,8,13,0.00
2012-10-19,85,84,82,71,69,68,65,61,58,29.98,29.88,9,8,12,0.00
2012-10-20,85,83,81,67,66,65,60,56,53,29.93,29.87,9,8,15,0.00
2012-10-21,87,84,82,69,66,64,60,55,50,29.95,29.87,8,7,11,0.00
2012-10-22,86,74,81,69,49,-100,61,52,54,29.97,29.85,10,8,14,0.00
2012-10-23,85,84,82,70,69,65,66,60,53,29.95,29.85,10,8,16,0.00
2012-10-24,87,85,83,70,70,69,64,61,56,29.85,29.80,11,9,17,0.00
2012-10-25,85,84,82,73,54,-100,70,59,61,29.92,29.87,10,8,15,0.00
2012-10-26,87,84,83,71,69,67,64,61,58,30.03,29.95,11,9,17,0.00
2012-10-27,86,84,83,71,69,66,66,60,52,30.04,29.91,13,11,20,0.00
2012-10-28,85,83,81,67,66,64,58,56,53,29.94,29.89,8,7,11,0.00
2012-10-29,86,85,82,65,64,63,57,50,48,30.01,29.91,9,8,15,0.00
2012-10-30,85,84,82,67,65,63,57,54,50,30.03,29.94,9,8,14,0.00
2012-10-31,85,83,81,66,64,60,58,52,43,30.02,29.93,9,8,15,0.00
2012-11-1,84,71,81,65,40,-100,56,45,48,29.99,29.94,7,6,12,0.00
2012-11-2,84,82,81,65,63,61,56,52,48,29.95,29.89,11,9,16,0.00
2012-11-3,83,83,83,63,62,61,51,49,48,29.97,29.96,7,6,11,0.00
2012-11-4,87,85,82,67,64,62,57,50,45,29.97,29.90,15,12,23,0.00
2012-11-5,85,83,81,67,65,62,59,55,47,29.94,29.83,9,7,12,0.00
2012-11-6,83,65,82,69,32,-100,64,49,59,29.90,29.82,7,6,11,0.00
2012-11-7,85,83,81,67,65,65,62,55,52,29.97,29.89,9,7,12,0.00
2012-11-8,84,82,80,69,68,66,68,62,59,30.04,29.98,7,6,14,0.01
2012-11-9,84,82,81,66,66,65,61,57,53,30.04,29.94,9,7,14,0.00
2012-11-10,84,83,81,66,64,62,58,53,48,30.02,29.91,8,7,14,0.00
2012-11-11,84,83,81,65,63,60,57,51,46,30.00,29.93,9,8,15,0.00
2012-11-12,84,82,80,66,64,62,54,54,53,30.05,29.96,8,7,14,0.00
2012-11-13,83,82,80,65,64,64,58,56,54,30.05,29.97,8,7,14,0.00
2012-11-14,84,80,81,66,61,-100,60,54,52,30.06,29.99,9,8,15,0.00
2012-11-15,82,82,81,64,63,62,55,54,51,30.07,29.98,8,7,12,0.00
2012-11-16,83,82,81,65,64,64,56,56,54,30.04,29.98,8,8,14,0.00
2012-11-17,82,81,80,65,21,-100,57,42,57,29.99,29.97,7,6,11,0.00
2012-11-18,83,81,80,67,66,65,63,60,57,30.07,30.00,10,8,14,0.00
2012-11-19,85,83,81,68,66,64,63,56,49,30.06,29.96,10,8,15,0.00
2012-11-20,82,81,80,67,66,64,65,62,55,30.03,29.92,7,6,11,0.00
2012-11-21,80,80,80,71,71,71,74,74,74,29.89,29.89,6,6,0,0.00
2012-11-22,81,80,79,71,69,67,73,69,63,29.97,29.87,9,7,15,0.00
2012-11-23,84,83,81,70,69,67,68,64,59,29.95,29.87,11,9,17,0.00
2012-11-24,83,82,80,70,47,-100,67,56,61,29.96,29.86,8,7,11,0.00
2012-11-25,86,83,80,66,64,62,62,53,46,29.97,29.85,9,8,17,0.00
2012-11-27,83,82,79,65,63,58,63,53,44,30.03,29.93,8,7,14,0.00
2012-11-28,82,81,79,65,63,62,57,55,53,30.04,29.95,9,8,13,0.00
2012-11-29,81,80,78,64,63,62,60,57,55,30.06,29.96,7,6,12,0.00
2012-11-30,82,80,78,64,63,59,61,56,51,30.05,29.96,7,6,11,0.00
2012-12-1,83,81,78,64,63,60,61,55,50,30.03,29.94,12,9,19,0.00
2012-12-2,84,83,81,68,64,60,64,53,46,30.05,29.97,12,10,16,0.00
2012-12-3,84,65,83,71,32,-100,68,51,63,29.93,29.92,10,9,16,0.00
2012-12-4,81,80,80,71,71,71,73,72,71,30.02,30.02,7,6,9,0.00
2012-12-5,83,83,83,65,65,65,55,55,55,30.00,30.00,6,6,12,0.00
2012-12-6,81,80,80,69,68,67,69,67,64,29.97,29.88,7,6,10,0.00
2012-12-7,87,83,81,69,63,59,65,52,39,29.98,29.84,15,11,24,0.00
2012-12-8,81,81,81,65,65,65,59,59,59,29.95,29.95,5,5,9,0.00
2012-12-9,83,82,80,67,65,63,62,56,51,29.93,29.83,8,7,11,0.00
2012-12-10,83,82,81,66,64,62,58,55,50,29.97,29.89,8,6,12,0.00
2012-12-11,81,80,79,64,63,61,60,56,53,30.01,29.94,8,6,15,0.00
2012-12-12,80,80,78,65,64,64,62,61,59,30.03,29.96,7,6,11,0.00
2012-12-13,81,80,79,65,64,64,63,58,56,30.07,29.99,9,6,12,0.00
2012-12-14,81,81,80,66,64,63,60,57,55,30.08,30.00,8,6,11,0.00
2012-12-15,82,80,78,65,63,61,64,56,53,30.09,29.99,9,6,12,0.00
2012-12-16,81,80,77,65,63,61,65,57,52,30.05,29.96,8,7,15,0.00
2012-12-17,81,81,80,65,62,60,59,54,50,30.05,29.96,10,7,13,0.00
2012-12-18,83,82,80,65,61,57,61,50,41,30.03,29.94,8,7,14,0.00
2012-12-19,82,68,80,64,36,-100,56,44,47,30.00,29.94,8,7,14,0.00
2012-12-20,83,81,79,67,65,63,61,57,54,29.97,29.89,9,7,14,0.00
2012-12-21,85,82,80,65,63,61,58,54,45,29.99,29.91,9,7,14,0.00
2012-12-22,81,81,79,62,59,54,53,49,39,30.03,29.90,11,8,15,0.00
2012-12-23,81,80,78,63,61,56,60,53,43,30.02,29.90,8,7,12,0.00
2012-12-24,83,82,79,63,61,57,58,51,43,29.98,29.89,13,9,20,0.00
2012-12-25,82,81,80,67,66,65,63,61,59,30.01,29.96,8,7,14,0.00
2012-12-26,82,81,79,68,65,63,68,59,53,30.02,29.90,8,7,10,0.00
2012-12-27,82,80,78,65,23,-100,63,45,56,29.98,29.90,8,7,12,0.00
2012-12-28,82,80,78,66,47,-100,66,52,52,29.97,29.89,9,7,13,0.00
2012-12-29,81,80,78,66,40,-100,63,52,59,30.01,29.91,8,7,12,0.00
2012-12-30,84,82,81,68,28,-100,62,40,44,29.99,29.94,11,8,17,0.00
2013-1-1,82,80,78,66,65,64,65,61,55,30.07,29.95,7,6,13,0.00